sensor_id;sensor_type;location;lat;lon;timestamp;P1;durP1;ratioP1;P2;durP2;ratioP2
23052;SDS011;11694;-36.632;-64.318;2022-11-20T00:02:05;11.23;;;2.50;;
23052;SDS011;11694;-36.632;-64.318;2022-11-20T00:04:33;8.88;;;2.55;;
23052;SDS011;11694;-36.632;-64.318;2022-11-20T00:07:00;13.90;;;2.65;;
23052;SDS011;11694;-36.632;-64.318;2022-11-20T00:09:28;11.68;;;2.60;;
23052;SDS011;11694;-36.632;-64.318;2022-11-20T00:11:55;12.52;;;4.13;;
23052;SDS011;11694;-36.632;-64.318;2022-11-20T00:14:22;8.68;;;4.00;;
23052;SDS011;11694;-36.632;-64.318;2022-11-20T00:16:49;17.73;;;3.05;;
23052;SDS011;11694;-36.632;-64.318;2022-11-20T00:19:17;5.82;;;2.60;;
23052;SDS011;11694;-36.632;-64.318;2022-11-20T00:21:45;6.93;;;2.38;;
23052;SDS011;11694;-36.632;-64.318;2022-11-20T00:24:13;19.63;;;10.27;;
23052;SDS011;11694;-36.632;-64.318;2022-11-20T00:26:40;11.77;;;4.97;;
23052;SDS011;11694;-36.632;-64.318;2022-11-20T00:29:08;12.68;;;5.20;;
23052;SDS011;11694;-36.632;-64.318;2022-11-20T00:31:36;12.98;;;7.20;;
23052;SDS011;11694;-36.632;-64.318;2022-11-20T00:34:03;15.00;;;5.30;;
23052;SDS011;11694;-36.632;-64.318;2022-11-20T00:36:31;14.55;;;4.20;;
23052;SDS011;11694;-36.632;-64.318;2022-11-20T00:38:59;9.57;;;3.10;;
23052;SDS011;11694;-36.632;-64.318;2022-11-20T00:41:27;13.82;;;5.63;;
23052;SDS011;11694;-36.632;-64.318;2022-11-20T00:43:55;25.80;;;14.60;;
23052;SDS011;11694;-36.632;-64.318;2022-11-20T00:46:23;12.38;;;7.85;;
23052;SDS011;11694;-36.632;-64.318;2022-11-20T00:48:52;14.93;;;6.72;;
23052;SDS011;11694;-36.632;-64.318;2022-11-20T00:51:21;17.27;;;11.00;;
23052;SDS011;11694;-36.632;-64.318;2022-11-20T00:53:49;15.65;;;8.55;;
23052;SDS011;11694;-36.632;-64.318;2022-11-20T00:56:17;41.08;;;28.45;;
23052;SDS011;11694;-36.632;-64.318;2022-11-20T00:58:46;20.48;;;15.65;;
23052;SDS011;11694;-36.632;-64.318;2022-11-20T01:03:46;39.28;;;31.98;;
23052;SDS011;11694;-36.632;-64.318;2022-11-20T01:06:16;57.05;;;43.05;;
23052;SDS011;11694;-36.632;-64.318;2022-11-20T01:08:45;45.28;;;33.78;;
23052;SDS011;11694;-36.632;-64.318;2022-11-20T01:11:14;7.97;;;4.72;;
23052;SDS011;11694;-36.632;-64.318;2022-11-20T01:13:46;6.72;;;4.35;;
23052;SDS011;11694;-36.632;-64.318;2022-11-20T01:16:22;15.98;;;7.35;;
23052;SDS011;11694;-36.632;-64.318;2022-11-20T01:18:56;9.38;;;4.40;;
23052;SDS011;11694;-36.632;-64.318;2022-11-20T01:21:29;6.30;;;4.47;;
23052;SDS011;11694;-36.632;-64.318;2022-11-20T01:24:02;9.25;;;6.28;;
23052;SDS011;11694;-36.632;-64.318;2022-11-20T01:26:31;7.45;;;3.58;;
23052;SDS011;11694;-36.632;-64.318;2022-11-20T01:29:00;6.85;;;3.47;;
23052;SDS011;11694;-36.632;-64.318;2022-11-20T01:31:29;13.05;;;7.65;;
23052;SDS011;11694;-36.632;-64.318;2022-11-20T01:34:04;11.85;;;7.10;;
23052;SDS011;11694;-36.632;-64.318;2022-11-20T01:36:33;13.00;;;6.05;;
23052;SDS011;11694;-36.632;-64.318;2022-11-20T01:39:07;7.82;;;5.30;;
23052;SDS011;11694;-36.632;-64.318;2022-11-20T01:41:44;11.30;;;3.90;;
23052;SDS011;11694;-36.632;-64.318;2022-11-20T01:47:22;7.82;;;3.70;;
23052;SDS011;11694;-36.632;-64.318;2022-11-20T01:50:15;9.82;;;3.38;;
23052;SDS011;11694;-36.632;-64.318;2022-11-20T01:52:55;20.75;;;8.85;;
23052;SDS011;11694;-36.632;-64.318;2022-11-20T01:55:31;112.97;;;9.70;;
23052;SDS011;11694;-36.632;-64.318;2022-11-20T01:58:02;53.65;;;6.25;;
23052;SDS011;11694;-36.632;-64.318;2022-11-20T02:00:32;45.30;;;3.90;;
23052;SDS011;11694;-36.632;-64.318;2022-11-20T02:03:00;25.63;;;3.70;;
23052;SDS011;11694;-36.632;-64.318;2022-11-20T02:08:30;51.43;;;4.67;;
23052;SDS011;11694;-36.632;-64.318;2022-11-20T02:10:58;25.13;;;2.93;;
23052;SDS011;11694;-36.632;-64.318;2022-11-20T02:13:25;19.30;;;1.77;;
23052;SDS011;11694;-36.632;-64.318;2022-11-20T02:16:21;10.20;;;1.70;;
23052;SDS011;11694;-36.632;-64.318;2022-11-20T02:18:52;9.43;;;1.30;;
23052;SDS011;11694;-36.632;-64.318;2022-11-20T02:24:07;6.20;;;1.43;;
23052;SDS011;11694;-36.632;-64.318;2022-11-20T02:26:42;7.43;;;1.10;;
23052;SDS011;11694;-36.632;-64.318;2022-11-20T02:29:29;31.80;;;3.13;;
23052;SDS011;11694;-36.632;-64.318;2022-11-20T02:32:03;13.87;;;1.80;;
23052;SDS011;11694;-36.632;-64.318;2022-11-20T02:34:31;11.77;;;1.93;;
23052;SDS011;11694;-36.632;-64.318;2022-11-20T02:36:58;4.40;;;1.27;;
23052;SDS011;11694;-36.632;-64.318;2022-11-20T02:39:26;6.00;;;1.03;;
23052;SDS011;11694;-36.632;-64.318;2022-11-20T02:41:54;15.33;;;2.07;;
23052;SDS011;11694;-36.632;-64.318;2022-11-20T02:44:22;4.20;;;1.30;;
23052;SDS011;11694;-36.632;-64.318;2022-11-20T02:46:50;4.80;;;1.30;;
23052;SDS011;11694;-36.632;-64.318;2022-11-20T02:49:17;16.50;;;2.80;;
23052;SDS011;11694;-36.632;-64.318;2022-11-20T02:51:44;8.80;;;1.80;;
23052;SDS011;11694;-36.632;-64.318;2022-11-20T02:54:11;7.10;;;2.27;;
23052;SDS011;11694;-36.632;-64.318;2022-11-20T02:56:38;10.40;;;2.30;;
23052;SDS011;11694;-36.632;-64.318;2022-11-20T02:59:09;11.23;;;2.70;;
23052;SDS011;11694;-36.632;-64.318;2022-11-20T03:01:36;60.00;;;8.13;;
23052;SDS011;11694;-36.632;-64.318;2022-11-20T03:04:03;12.37;;;4.97;;
23052;SDS011;11694;-36.632;-64.318;2022-11-20T03:06:30;6.13;;;2.97;;
23052;SDS011;11694;-36.632;-64.318;2022-11-20T03:08:57;5.17;;;2.10;;
23052;SDS011;11694;-36.632;-64.318;2022-11-20T03:11:24;7.10;;;2.97;;
23052;SDS011;11694;-36.632;-64.318;2022-11-20T03:13:51;4.90;;;2.33;;
23052;SDS011;11694;-36.632;-64.318;2022-11-20T03:16:19;3.03;;;1.87;;
23052;SDS011;11694;-36.632;-64.318;2022-11-20T03:18:48;5.27;;;2.20;;
23052;SDS011;11694;-36.632;-64.318;2022-11-20T03:21:17;7.37;;;2.20;;
23052;SDS011;11694;-36.632;-64.318;2022-11-20T03:23:44;12.00;;;3.80;;
23052;SDS011;11694;-36.632;-64.318;2022-11-20T03:28:38;5.67;;;2.50;;
23052;SDS011;11694;-36.632;-64.318;2022-11-20T03:31:10;6.13;;;2.57;;
23052;SDS011;11694;-36.632;-64.318;2022-11-20T03:33:39;4.20;;;2.23;;
23052;SDS011;11694;-36.632;-64.318;2022-11-20T03:36:08;5.73;;;2.47;;
23052;SDS011;11694;-36.632;-64.318;2022-11-20T03:38:37;3.77;;;2.57;;
23052;SDS011;11694;-36.632;-64.318;2022-11-20T03:41:06;6.37;;;2.90;;
23052;SDS011;11694;-36.632;-64.318;2022-11-20T03:43:36;4.83;;;2.40;;
23052;SDS011;11694;-36.632;-64.318;2022-11-20T03:46:04;6.23;;;2.97;;
23052;SDS011;11694;-36.632;-64.318;2022-11-20T03:48:31;4.93;;;2.40;;
23052;SDS011;11694;-36.632;-64.318;2022-11-20T03:51:12;7.70;;;3.53;;
23052;SDS011;11694;-36.632;-64.318;2022-11-20T03:53:44;5.63;;;3.00;;
23052;SDS011;11694;-36.632;-64.318;2022-11-20T03:56:14;8.63;;;3.43;;
23052;SDS011;11694;-36.632;-64.318;2022-11-20T03:58:42;5.73;;;3.40;;
23052;SDS011;11694;-36.632;-64.318;2022-11-20T04:01:17;8.83;;;3.27;;
23052;SDS011;11694;-36.632;-64.318;2022-11-20T04:03:48;8.60;;;3.10;;
23052;SDS011;11694;-36.632;-64.318;2022-11-20T04:06:20;7.73;;;2.87;;
23052;SDS011;11694;-36.632;-64.318;2022-11-20T04:08:55;5.93;;;2.90;;
23052;SDS011;11694;-36.632;-64.318;2022-11-20T04:11:24;2.90;;;2.43;;
23052;SDS011;11694;-36.632;-64.318;2022-11-20T04:13:57;2.93;;;2.60;;
23052;SDS011;11694;-36.632;-64.318;2022-11-20T04:16:26;5.47;;;3.30;;
23052;SDS011;11694;-36.632;-64.318;2022-11-20T04:18:58;3.57;;;2.70;;
23052;SDS011;11694;-36.632;-64.318;2022-11-20T04:21:26;4.53;;;3.07;;
23052;SDS011;11694;-36.632;-64.318;2022-11-20T04:23:54;5.20;;;3.20;;
23052;SDS011;11694;-36.632;-64.318;2022-11-20T04:26:22;4.60;;;3.33;;
23052;SDS011;11694;-36.632;-64.318;2022-11-20T04:28:51;5.13;;;2.90;;
23052;SDS011;11694;-36.632;-64.318;2022-11-20T04:31:20;5.33;;;2.83;;
23052;SDS011;11694;-36.632;-64.318;2022-11-20T04:33:54;5.17;;;3.37;;
23052;SDS011;11694;-36.632;-64.318;2022-11-20T04:36:25;4.37;;;3.23;;
23052;SDS011;11694;-36.632;-64.318;2022-11-20T04:38:54;6.07;;;3.30;;
23052;SDS011;11694;-36.632;-64.318;2022-11-20T04:41:24;6.60;;;3.10;;
23052;SDS011;11694;-36.632;-64.318;2022-11-20T04:43:57;8.27;;;3.43;;
23052;SDS011;11694;-36.632;-64.318;2022-11-20T04:46:29;7.17;;;3.30;;
23052;SDS011;11694;-36.632;-64.318;2022-11-20T04:49:00;5.87;;;3.53;;
23052;SDS011;11694;-36.632;-64.318;2022-11-20T04:51:27;9.63;;;4.00;;
23052;SDS011;11694;-36.632;-64.318;2022-11-20T04:53:54;6.93;;;4.50;;
23052;SDS011;11694;-36.632;-64.318;2022-11-20T04:56:22;8.00;;;4.27;;
23052;SDS011;11694;-36.632;-64.318;2022-11-20T04:58:49;7.53;;;4.10;;
23052;SDS011;11694;-36.632;-64.318;2022-11-20T05:01:20;7.23;;;3.97;;
23052;SDS011;11694;-36.632;-64.318;2022-11-20T05:03:49;10.17;;;4.67;;
23052;SDS011;11694;-36.632;-64.318;2022-11-20T05:06:17;9.10;;;4.47;;
23052;SDS011;11694;-36.632;-64.318;2022-11-20T05:08:46;6.50;;;4.23;;
23052;SDS011;11694;-36.632;-64.318;2022-11-20T05:11:13;10.73;;;4.20;;
23052;SDS011;11694;-36.632;-64.318;2022-11-20T05:13:45;7.77;;;3.83;;
23052;SDS011;11694;-36.632;-64.318;2022-11-20T05:16:13;9.03;;;4.60;;
23052;SDS011;11694;-36.632;-64.318;2022-11-20T05:18:42;8.83;;;4.37;;
23052;SDS011;11694;-36.632;-64.318;2022-11-20T05:21:10;9.17;;;4.23;;
23052;SDS011;11694;-36.632;-64.318;2022-11-20T05:23:38;9.53;;;3.83;;
23052;SDS011;11694;-36.632;-64.318;2022-11-20T05:26:07;5.43;;;3.80;;
23052;SDS011;11694;-36.632;-64.318;2022-11-20T05:28:38;8.63;;;4.40;;
23052;SDS011;11694;-36.632;-64.318;2022-11-20T05:31:06;7.70;;;4.10;;
23052;SDS011;11694;-36.632;-64.318;2022-11-20T05:33:41;10.53;;;4.27;;
23052;SDS011;11694;-36.632;-64.318;2022-11-20T05:36:10;8.00;;;3.90;;
23052;SDS011;11694;-36.632;-64.318;2022-11-20T05:38:38;7.07;;;3.70;;
23052;SDS011;11694;-36.632;-64.318;2022-11-20T05:41:07;5.83;;;3.23;;
23052;SDS011;11694;-36.632;-64.318;2022-11-20T05:43:36;5.90;;;3.57;;
23052;SDS011;11694;-36.632;-64.318;2022-11-20T05:46:05;5.90;;;3.53;;
23052;SDS011;11694;-36.632;-64.318;2022-11-20T05:48:34;6.87;;;4.40;;
23052;SDS011;11694;-36.632;-64.318;2022-11-20T05:51:02;8.80;;;3.90;;
23052;SDS011;11694;-36.632;-64.318;2022-11-20T05:53:31;8.80;;;4.47;;
23052;SDS011;11694;-36.632;-64.318;2022-11-20T05:56:12;6.53;;;4.70;;
23052;SDS011;11694;-36.632;-64.318;2022-11-20T05:58:41;8.57;;;4.40;;
23052;SDS011;11694;-36.632;-64.318;2022-11-20T06:01:20;4.67;;;3.30;;
23052;SDS011;11694;-36.632;-64.318;2022-11-20T06:03:48;4.70;;;3.03;;
23052;SDS011;11694;-36.632;-64.318;2022-11-20T06:06:16;4.53;;;3.10;;
23052;SDS011;11694;-36.632;-64.318;2022-11-20T06:08:44;5.63;;;2.60;;
23052;SDS011;11694;-36.632;-64.318;2022-11-20T06:11:12;3.90;;;3.00;;
23052;SDS011;11694;-36.632;-64.318;2022-11-20T06:13:40;3.80;;;2.97;;
23052;SDS011;11694;-36.632;-64.318;2022-11-20T06:16:07;6.30;;;3.20;;
23052;SDS011;11694;-36.632;-64.318;2022-11-20T06:18:35;5.20;;;3.20;;
23052;SDS011;11694;-36.632;-64.318;2022-11-20T06:21:06;5.70;;;2.43;;
23052;SDS011;11694;-36.632;-64.318;2022-11-20T06:23:39;3.30;;;2.40;;
23052;SDS011;11694;-36.632;-64.318;2022-11-20T06:26:08;3.90;;;2.80;;
23052;SDS011;11694;-36.632;-64.318;2022-11-20T06:28:36;4.80;;;2.93;;
23052;SDS011;11694;-36.632;-64.318;2022-11-20T06:31:04;3.47;;;2.97;;
23052;SDS011;11694;-36.632;-64.318;2022-11-20T06:33:33;4.27;;;2.60;;
23052;SDS011;11694;-36.632;-64.318;2022-11-20T06:36:00;5.67;;;2.87;;
23052;SDS011;11694;-36.632;-64.318;2022-11-20T06:38:28;5.10;;;2.80;;
23052;SDS011;11694;-36.632;-64.318;2022-11-20T06:40:55;4.77;;;3.00;;
23052;SDS011;11694;-36.632;-64.318;2022-11-20T06:43:23;3.67;;;2.93;;
23052;SDS011;11694;-36.632;-64.318;2022-11-20T06:45:51;4.47;;;3.10;;
23052;SDS011;11694;-36.632;-64.318;2022-11-20T06:48:19;4.43;;;3.40;;
23052;SDS011;11694;-36.632;-64.318;2022-11-20T06:50:47;4.33;;;3.43;;
23052;SDS011;11694;-36.632;-64.318;2022-11-20T06:53:14;3.87;;;3.40;;
23052;SDS011;11694;-36.632;-64.318;2022-11-20T06:55:45;5.70;;;3.20;;
23052;SDS011;11694;-36.632;-64.318;2022-11-20T06:58:13;3.17;;;2.30;;
23052;SDS011;11694;-36.632;-64.318;2022-11-20T07:00:41;3.13;;;2.83;;
23052;SDS011;11694;-36.632;-64.318;2022-11-20T07:03:09;4.10;;;2.70;;
23052;SDS011;11694;-36.632;-64.318;2022-11-20T07:05:37;4.00;;;3.07;;
23052;SDS011;11694;-36.632;-64.318;2022-11-20T07:08:04;3.57;;;2.80;;
23052;SDS011;11694;-36.632;-64.318;2022-11-20T07:10:32;3.73;;;3.00;;
23052;SDS011;11694;-36.632;-64.318;2022-11-20T07:13:00;4.20;;;3.50;;
23052;SDS011;11694;-36.632;-64.318;2022-11-20T07:15:27;3.33;;;2.77;;
23052;SDS011;11694;-36.632;-64.318;2022-11-20T07:17:55;5.83;;;4.10;;
23052;SDS011;11694;-36.632;-64.318;2022-11-20T07:20:24;4.67;;;3.40;;
23052;SDS011;11694;-36.632;-64.318;2022-11-20T07:22:55;5.90;;;3.63;;
23052;SDS011;11694;-36.632;-64.318;2022-11-20T07:25:23;4.97;;;3.70;;
23052;SDS011;11694;-36.632;-64.318;2022-11-20T07:28:00;4.23;;;3.10;;
23052;SDS011;11694;-36.632;-64.318;2022-11-20T07:30:27;7.70;;;3.07;;
23052;SDS011;11694;-36.632;-64.318;2022-11-20T07:32:55;4.47;;;3.47;;
23052;SDS011;11694;-36.632;-64.318;2022-11-20T07:35:23;7.13;;;4.03;;
23052;SDS011;11694;-36.632;-64.318;2022-11-20T07:37:51;5.27;;;3.40;;
23052;SDS011;11694;-36.632;-64.318;2022-11-20T07:40:18;5.57;;;3.10;;
23052;SDS011;11694;-36.632;-64.318;2022-11-20T07:42:49;6.57;;;2.97;;
23052;SDS011;11694;-36.632;-64.318;2022-11-20T07:45:17;5.93;;;3.23;;
23052;SDS011;11694;-36.632;-64.318;2022-11-20T07:47:45;4.87;;;3.30;;
23052;SDS011;11694;-36.632;-64.318;2022-11-20T07:50:12;5.27;;;3.00;;
23052;SDS011;11694;-36.632;-64.318;2022-11-20T07:52:40;3.43;;;2.90;;
23052;SDS011;11694;-36.632;-64.318;2022-11-20T07:55:07;4.40;;;3.10;;
23052;SDS011;11694;-36.632;-64.318;2022-11-20T07:57:35;6.23;;;2.80;;
23052;SDS011;11694;-36.632;-64.318;2022-11-20T08:00:03;4.50;;;3.07;;
23052;SDS011;11694;-36.632;-64.318;2022-11-20T08:02:36;5.83;;;3.50;;
23052;SDS011;11694;-36.632;-64.318;2022-11-20T08:05:04;4.60;;;3.13;;
23052;SDS011;11694;-36.632;-64.318;2022-11-20T08:07:39;5.17;;;2.90;;
23052;SDS011;11694;-36.632;-64.318;2022-11-20T08:10:08;5.60;;;3.53;;
23052;SDS011;11694;-36.632;-64.318;2022-11-20T08:12:47;4.57;;;3.20;;
23052;SDS011;11694;-36.632;-64.318;2022-11-20T08:15:33;4.30;;;3.10;;
23052;SDS011;11694;-36.632;-64.318;2022-11-20T08:18:07;4.37;;;2.80;;
23052;SDS011;11694;-36.632;-64.318;2022-11-20T08:20:37;5.53;;;3.33;;
23052;SDS011;11694;-36.632;-64.318;2022-11-20T08:23:05;4.17;;;3.30;;
23052;SDS011;11694;-36.632;-64.318;2022-11-20T08:25:34;5.93;;;3.10;;
23052;SDS011;11694;-36.632;-64.318;2022-11-20T08:28:06;4.40;;;3.17;;
23052;SDS011;11694;-36.632;-64.318;2022-11-20T08:30:35;3.53;;;2.87;;
23052;SDS011;11694;-36.632;-64.318;2022-11-20T08:33:04;4.87;;;3.40;;
23052;SDS011;11694;-36.632;-64.318;2022-11-20T08:35:34;3.77;;;2.90;;
23052;SDS011;11694;-36.632;-64.318;2022-11-20T08:38:02;4.10;;;2.67;;
23052;SDS011;11694;-36.632;-64.318;2022-11-20T08:40:30;4.23;;;2.93;;
23052;SDS011;11694;-36.632;-64.318;2022-11-20T08:42:58;4.10;;;3.07;;
23052;SDS011;11694;-36.632;-64.318;2022-11-20T08:45:25;3.17;;;2.77;;
23052;SDS011;11694;-36.632;-64.318;2022-11-20T08:47:52;4.30;;;3.20;;
23052;SDS011;11694;-36.632;-64.318;2022-11-20T08:50:19;4.80;;;3.40;;
23052;SDS011;11694;-36.632;-64.318;2022-11-20T08:52:46;5.10;;;3.20;;
23052;SDS011;11694;-36.632;-64.318;2022-11-20T08:55:14;4.43;;;2.97;;
23052;SDS011;11694;-36.632;-64.318;2022-11-20T08:57:41;3.73;;;3.00;;
23052;SDS011;11694;-36.632;-64.318;2022-11-20T09:00:09;5.47;;;2.93;;
23052;SDS011;11694;-36.632;-64.318;2022-11-20T09:02:37;5.37;;;3.03;;
23052;SDS011;11694;-36.632;-64.318;2022-11-20T09:05:04;5.47;;;3.60;;
23052;SDS011;11694;-36.632;-64.318;2022-11-20T09:07:32;5.00;;;3.63;;
23052;SDS011;11694;-36.632;-64.318;2022-11-20T09:09:59;3.17;;;2.53;;
23052;SDS011;11694;-36.632;-64.318;2022-11-20T09:12:26;3.70;;;2.97;;
23052;SDS011;11694;-36.632;-64.318;2022-11-20T09:14:53;9.77;;;3.40;;
23052;SDS011;11694;-36.632;-64.318;2022-11-20T09:17:20;3.90;;;2.90;;
23052;SDS011;11694;-36.632;-64.318;2022-11-20T09:19:47;4.70;;;3.43;;
23052;SDS011;11694;-36.632;-64.318;2022-11-20T09:22:14;3.47;;;3.10;;
23052;SDS011;11694;-36.632;-64.318;2022-11-20T09:24:41;4.07;;;2.83;;
23052;SDS011;11694;-36.632;-64.318;2022-11-20T09:27:08;5.77;;;3.70;;
23052;SDS011;11694;-36.632;-64.318;2022-11-20T09:29:35;3.87;;;3.30;;
23052;SDS011;11694;-36.632;-64.318;2022-11-20T09:32:02;4.57;;;2.77;;
23052;SDS011;11694;-36.632;-64.318;2022-11-20T09:34:29;5.17;;;2.97;;
23052;SDS011;11694;-36.632;-64.318;2022-11-20T09:36:56;3.30;;;1.77;;
23052;SDS011;11694;-36.632;-64.318;2022-11-20T09:39:23;3.30;;;1.90;;
23052;SDS011;11694;-36.632;-64.318;2022-11-20T09:53:01;2.67;;;1.10;;
23052;SDS011;11694;-36.632;-64.318;2022-11-20T09:55:38;3.50;;;1.00;;
23052;SDS011;11694;-36.632;-64.318;2022-11-20T09:58:06;2.67;;;0.77;;
23052;SDS011;11694;-36.632;-64.318;2022-11-20T10:00:36;2.17;;;0.77;;
23052;SDS011;11694;-36.632;-64.318;2022-11-20T10:06:15;1.13;;;0.70;;
23052;SDS011;11694;-36.632;-64.318;2022-11-20T10:08:50;1.77;;;0.73;;
23052;SDS011;11694;-36.632;-64.318;2022-11-20T10:16:40;6.97;;;1.23;;
23052;SDS011;11694;-36.632;-64.318;2022-11-20T10:30:17;4.87;;;1.07;;
23052;SDS011;11694;-36.632;-64.318;2022-11-20T10:32:54;2.83;;;1.00;;
23052;SDS011;11694;-36.632;-64.318;2022-11-20T10:38:16;3.93;;;1.07;;
23052;SDS011;11694;-36.632;-64.318;2022-11-20T10:40:47;5.30;;;1.30;;
23052;SDS011;11694;-36.632;-64.318;2022-11-20T10:43:39;4.83;;;1.50;;
23052;SDS011;11694;-36.632;-64.318;2022-11-20T10:46:12;4.00;;;1.23;;
23052;SDS011;11694;-36.632;-64.318;2022-11-20T10:48:48;6.37;;;1.43;;
23052;SDS011;11694;-36.632;-64.318;2022-11-20T10:56:52;4.40;;;1.20;;
23052;SDS011;11694;-36.632;-64.318;2022-11-20T10:59:32;3.63;;;1.03;;
23052;SDS011;11694;-36.632;-64.318;2022-11-20T11:02:39;6.70;;;1.23;;
23052;SDS011;11694;-36.632;-64.318;2022-11-20T11:07:53;4.27;;;0.80;;
23052;SDS011;11694;-36.632;-64.318;2022-11-20T11:10:28;6.90;;;1.47;;
23052;SDS011;11694;-36.632;-64.318;2022-11-20T11:13:03;2.73;;;0.90;;
23052;SDS011;11694;-36.632;-64.318;2022-11-20T11:15:37;8.13;;;1.40;;
23052;SDS011;11694;-36.632;-64.318;2022-11-20T11:18:09;5.07;;;1.23;;
23052;SDS011;11694;-36.632;-64.318;2022-11-20T11:20:37;3.67;;;1.00;;
23052;SDS011;11694;-36.632;-64.318;2022-11-20T11:23:04;2.40;;;0.77;;
23052;SDS011;11694;-36.632;-64.318;2022-11-20T11:25:56;1.80;;;0.50;;
23052;SDS011;11694;-36.632;-64.318;2022-11-20T11:28:24;2.43;;;0.80;;
23052;SDS011;11694;-36.632;-64.318;2022-11-20T11:30:53;3.17;;;0.90;;
23052;SDS011;11694;-36.632;-64.318;2022-11-20T11:33:22;4.17;;;1.13;;
23052;SDS011;11694;-36.632;-64.318;2022-11-20T11:35:52;5.30;;;1.40;;
23052;SDS011;11694;-36.632;-64.318;2022-11-20T11:41:05;5.83;;;1.73;;
23052;SDS011;11694;-36.632;-64.318;2022-11-20T11:43:35;7.87;;;1.47;;
23052;SDS011;11694;-36.632;-64.318;2022-11-20T11:46:25;4.40;;;1.37;;
23052;SDS011;11694;-36.632;-64.318;2022-11-20T11:48:57;7.43;;;1.63;;
23052;SDS011;11694;-36.632;-64.318;2022-11-20T11:51:26;6.63;;;1.77;;
23052;SDS011;11694;-36.632;-64.318;2022-11-20T11:54:29;4.93;;;1.43;;
23052;SDS011;11694;-36.632;-64.318;2022-11-20T12:10:43;4.53;;;1.10;;
23052;SDS011;11694;-36.632;-64.318;2022-11-20T12:13:26;5.50;;;1.43;;
23052;SDS011;11694;-36.632;-64.318;2022-11-20T12:16:05;7.87;;;1.63;;
23052;SDS011;11694;-36.632;-64.318;2022-11-20T12:18:36;7.83;;;1.57;;
23052;SDS011;11694;-36.632;-64.318;2022-11-20T12:21:11;5.43;;;1.20;;
23052;SDS011;11694;-36.632;-64.318;2022-11-20T12:29:34;5.93;;;1.57;;
23052;SDS011;11694;-36.632;-64.318;2022-11-20T12:46:07;3.37;;;1.17;;
23052;SDS011;11694;-36.632;-64.318;2022-11-20T13:07:39;3.23;;;1.30;;
23052;SDS011;11694;-36.632;-64.318;2022-11-20T13:10:13;5.57;;;1.30;;
23052;SDS011;11694;-36.632;-64.318;2022-11-20T13:13:13;4.37;;;1.20;;
23052;SDS011;11694;-36.632;-64.318;2022-11-20T13:16:08;7.10;;;1.87;;
23052;SDS011;11694;-36.632;-64.318;2022-11-20T13:18:50;4.53;;;1.10;;
23052;SDS011;11694;-36.632;-64.318;2022-11-20T13:21:19;7.77;;;0.90;;
23052;SDS011;11694;-36.632;-64.318;2022-11-20T13:23:48;7.53;;;1.20;;
23052;SDS011;11694;-36.632;-64.318;2022-11-20T13:26:20;2.77;;;1.00;;
23052;SDS011;11694;-36.632;-64.318;2022-11-20T13:29:11;6.50;;;1.33;;
23052;SDS011;11694;-36.632;-64.318;2022-11-20T13:31:45;2.67;;;0.83;;
23052;SDS011;11694;-36.632;-64.318;2022-11-20T13:34:22;5.77;;;1.43;;
23052;SDS011;11694;-36.632;-64.318;2022-11-20T13:36:55;4.37;;;1.10;;
23052;SDS011;11694;-36.632;-64.318;2022-11-20T13:42:00;4.03;;;2.30;;
23052;SDS011;11694;-36.632;-64.318;2022-11-20T13:44:46;15.33;;;9.80;;
23052;SDS011;11694;-36.632;-64.318;2022-11-20T13:47:24;8.00;;;4.23;;
23052;SDS011;11694;-36.632;-64.318;2022-11-20T13:49:53;3.77;;;1.70;;
23052;SDS011;11694;-36.632;-64.318;2022-11-20T14:03:48;6.87;;;0.70;;
23052;SDS011;11694;-36.632;-64.318;2022-11-20T14:06:23;13.27;;;1.00;;
23052;SDS011;11694;-36.632;-64.318;2022-11-20T14:08:53;3.13;;;0.80;;
23052;SDS011;11694;-36.632;-64.318;2022-11-20T14:11:24;2.78;;;0.70;;
23052;SDS011;11694;-36.632;-64.318;2022-11-20T14:14:02;2.67;;;1.13;;
23052;SDS011;11694;-36.632;-64.318;2022-11-20T14:16:32;5.37;;;1.20;;
23052;SDS011;11694;-36.632;-64.318;2022-11-20T14:21:49;3.45;;;1.67;;
23052;SDS011;11694;-36.632;-64.318;2022-11-20T14:24:20;2.20;;;1.33;;
23052;SDS011;11694;-36.632;-64.318;2022-11-20T14:26:49;18.73;;;12.60;;
23052;SDS011;11694;-36.632;-64.318;2022-11-20T14:29:18;8.20;;;4.82;;
23052;SDS011;11694;-36.632;-64.318;2022-11-20T14:31:54;2.25;;;1.10;;
23052;SDS011;11694;-36.632;-64.318;2022-11-20T14:34:26;4.55;;;2.28;;
23052;SDS011;11694;-36.632;-64.318;2022-11-20T14:36:57;4.53;;;3.03;;
23052;SDS011;11694;-36.632;-64.318;2022-11-20T14:42:13;5.77;;;1.30;;
23052;SDS011;11694;-36.632;-64.318;2022-11-20T14:44:42;9.33;;;6.17;;
23052;SDS011;11694;-36.632;-64.318;2022-11-20T14:47:15;5.33;;;2.60;;
23052;SDS011;11694;-36.632;-64.318;2022-11-20T14:49:48;6.75;;;3.92;;
23052;SDS011;11694;-36.632;-64.318;2022-11-20T14:52:18;17.40;;;13.95;;
23052;SDS011;11694;-36.632;-64.318;2022-11-20T14:54:47;9.63;;;4.85;;
23052;SDS011;11694;-36.632;-64.318;2022-11-20T14:57:23;11.65;;;5.13;;
23052;SDS011;11694;-36.632;-64.318;2022-11-20T15:02:38;5.25;;;1.98;;
23052;SDS011;11694;-36.632;-64.318;2022-11-20T15:05:13;1.75;;;1.05;;
23052;SDS011;11694;-36.632;-64.318;2022-11-20T15:07:43;4.55;;;2.63;;
23052;SDS011;11694;-36.632;-64.318;2022-11-20T15:10:22;4.60;;;1.08;;
23052;SDS011;11694;-36.632;-64.318;2022-11-20T15:12:51;8.02;;;4.05;;
23052;SDS011;11694;-36.632;-64.318;2022-11-20T15:18:38;6.75;;;1.40;;
23052;SDS011;11694;-36.632;-64.318;2022-11-20T15:21:11;10.95;;;4.20;;
23052;SDS011;11694;-36.632;-64.318;2022-11-20T15:23:42;3.10;;;2.22;;
23052;SDS011;11694;-36.632;-64.318;2022-11-20T15:26:12;7.13;;;2.70;;
23052;SDS011;11694;-36.632;-64.318;2022-11-20T15:28:42;13.02;;;5.35;;
23052;SDS011;11694;-36.632;-64.318;2022-11-20T15:31:14;8.70;;;2.40;;
23052;SDS011;11694;-36.632;-64.318;2022-11-20T15:33:45;4.18;;;2.90;;
23052;SDS011;11694;-36.632;-64.318;2022-11-20T15:36:13;5.25;;;1.35;;
23052;SDS011;11694;-36.632;-64.318;2022-11-20T15:38:40;6.32;;;2.28;;
23052;SDS011;11694;-36.632;-64.318;2022-11-20T15:41:08;9.02;;;4.50;;
23052;SDS011;11694;-36.632;-64.318;2022-11-20T15:43:36;12.68;;;7.82;;
23052;SDS011;11694;-36.632;-64.318;2022-11-20T15:46:09;4.10;;;2.60;;
23052;SDS011;11694;-36.632;-64.318;2022-11-20T15:48:54;6.72;;;1.20;;
23052;SDS011;11694;-36.632;-64.318;2022-11-20T15:51:27;2.90;;;1.58;;
23052;SDS011;11694;-36.632;-64.318;2022-11-20T15:54:11;4.65;;;1.05;;
23052;SDS011;11694;-36.632;-64.318;2022-11-20T15:56:43;4.10;;;1.52;;
23052;SDS011;11694;-36.632;-64.318;2022-11-20T15:59:10;4.95;;;1.40;;
23052;SDS011;11694;-36.632;-64.318;2022-11-20T16:01:39;4.05;;;2.10;;
23052;SDS011;11694;-36.632;-64.318;2022-11-20T16:04:11;3.42;;;1.60;;
23052;SDS011;11694;-36.632;-64.318;2022-11-20T16:06:42;2.85;;;0.80;;
23052;SDS011;11694;-36.632;-64.318;2022-11-20T16:09:09;1.80;;;0.88;;
23052;SDS011;11694;-36.632;-64.318;2022-11-20T16:11:36;4.07;;;0.65;;
23052;SDS011;11694;-36.632;-64.318;2022-11-20T16:14:04;3.63;;;1.33;;
23052;SDS011;11694;-36.632;-64.318;2022-11-20T16:16:50;2.72;;;1.02;;
23052;SDS011;11694;-36.632;-64.318;2022-11-20T16:19:17;2.78;;;0.82;;
23052;SDS011;11694;-36.632;-64.318;2022-11-20T16:21:44;2.22;;;1.13;;
23052;SDS011;11694;-36.632;-64.318;2022-11-20T16:24:12;3.58;;;1.33;;
23052;SDS011;11694;-36.632;-64.318;2022-11-20T16:26:41;7.22;;;1.05;;
23052;SDS011;11694;-36.632;-64.318;2022-11-20T16:29:08;9.40;;;0.95;;
23052;SDS011;11694;-36.632;-64.318;2022-11-20T16:31:35;2.35;;;0.80;;
23052;SDS011;11694;-36.632;-64.318;2022-11-20T16:34:04;1.77;;;0.77;;
23052;SDS011;11694;-36.632;-64.318;2022-11-20T16:36:32;7.55;;;2.00;;
23052;SDS011;11694;-36.632;-64.318;2022-11-20T16:39:00;2.88;;;1.63;;
23052;SDS011;11694;-36.632;-64.318;2022-11-20T16:41:30;4.57;;;1.50;;
23052;SDS011;11694;-36.632;-64.318;2022-11-20T16:43:59;4.60;;;1.23;;